Time;durP1;ratioP1;P1;durP2;ratioP2;P2;SDS_P1;SDS_P2;PMS_P1;PMS_P2;Temp;Humidity;BMP_temperature;BMP_pressure;BME280_temperature;BME280_humidity;BME280_pressure;Samples;Min_cycle;Max_cycle;Signal;HPM_P1;HPM_P2
2023/03/21 00:02:10;;;;;;;14.47;8.30;;;;;;;9.48;100.00;-14235.97;5153470;27;20678;-60
2023/03/21 00:04:37;;;;;;;20.73;9.43;;;;;;;9.47;100.00;-13282.94;5153465;27;20576;-60
2023/03/21 00:07:06;;;;;;;22.00;9.37;;;;;;;9.52;100.00;-12648.31;5153142;27;20182;-59
2023/03/21 00:09:32;;;;;;;23.73;10.13;;;;;;;9.42;100.00;-12011.31;5152552;27;20182;-60
2023/03/21 00:12:00;;;;;;;43.83;9.50;;;;;;;9.41;100.00;-11693.34;5152689;27;20549;-60
2023/03/21 00:14:29;;;;;;;22.23;9.30;;;;;;;9.42;100.00;-11693.47;5153417;27;20270;-59
2023/03/21 00:16:56;;;;;;;20.23;8.77;;;;;;;9.37;100.00;-12328.25;5153241;27;20186;-60
2023/03/21 00:19:25;;;;;;;20.20;9.97;;;;;;;9.49;100.00;-12647.78;5152233;27;20183;-59
2023/03/21 00:21:54;;;;;;;23.10;9.40;;;;;;;9.55;100.00;-12331.00;5152910;27;20231;-60
2023/03/21 00:24:23;;;;;;;21.30;8.00;;;;;;;9.54;100.00;-11695.16;5153138;27;20301;-59
2023/03/21 00:26:50;;;;;;;19.13;7.63;;;;;;;9.53;100.00;-11059.25;5153866;27;20182;-59
2023/03/21 00:29:17;;;;;;;22.93;10.03;;;;;;;9.32;100.00;-11692.16;5157002;27;20204;-60
2023/03/21 00:31:44;;;;;;;30.17;8.97;;;;;;;9.36;100.00;-12963.44;5156777;27;20282;-60
2023/03/21 00:34:11;;;;;;;14.40;8.70;;;;;;;9.51;100.00;-13283.59;5156433;27;20221;-61
2023/03/21 00:36:38;;;;;;;20.90;10.63;;;;;;;9.59;100.00;-12967.16;5156483;27;20182;-59
2023/03/21 00:39:06;;;;;;;19.17;9.17;;;;;;;9.55;100.00;-11695.34;5156271;27;20183;-58
2023/03/21 00:41:34;;;;;;;19.60;8.30;;;;;;;9.41;100.00;-10739.91;5156811;27;20186;-60
2023/03/21 00:44:01;;;;;;;15.60;8.30;;;;;;;9.50;100.00;-10741.03;5156364;27;20182;-60
2023/03/21 00:46:27;;;;;;;11.77;8.67;;;;;;;9.41;100.00;-10104.09;5156693;27;20229;-59
2023/03/21 00:48:54;;;;;;;20.60;8.60;;;;;;;9.44;100.00;-10104.38;5156308;27;20637;-60
2023/03/21 00:51:25;;;;;;;14.60;7.37;;;;;;;9.46;100.00;-10422.56;5155838;27;20197;-59
2023/03/21 00:53:53;;;;;;;25.30;8.87;;;;;;;9.41;100.00;-11375.53;5156610;27;20178;-60
2023/03/21 00:56:20;;;;;;;32.73;9.53;;;;;;;9.54;100.00;-11059.38;5156142;27;20179;-59
2023/03/21 00:58:48;;;;;;;18.53;9.03;;;;;;;9.56;100.00;-10741.69;5156457;27;20197;-61
2023/03/21 01:01:18;;;;;;;18.77;8.77;;;;;;;9.57;100.00;-10105.91;5155919;27;20186;-59
2023/03/21 01:03:49;;;;;;;18.07;7.87;;;;;;;9.48;100.00;-9786.84;5138247;27;20198;-60
2023/03/21 01:06:18;;;;;;;15.50;8.50;;;;;;;9.53;100.00;-9787.38;5155322;27;20201;-59
2023/03/21 01:08:47;;;;;;;26.73;8.67;;;;;;;9.57;100.00;-10105.91;5156617;27;20690;-59
2023/03/21 01:11:17;;;;;;;24.90;8.97;;;;;;;9.64;100.00;-10424.69;5156371;27;20182;-60
2023/03/21 01:13:44;;;;;;;23.73;10.03;;;;;;;9.59;100.00;-9470.00;5155710;27;20182;-61
2023/03/21 01:16:13;;;;;;;19.23;8.67;;;;;;;9.55;100.00;-9151.44;5155516;27;20185;-58
2023/03/21 01:18:41;;;;;;;17.63;8.30;;;;;;;9.56;100.00;-9151.59;5155905;27;20182;-60
2023/03/21 01:21:11;;;;;;;16.53;8.40;;;;;;;9.52;100.00;-8833.09;5155339;27;20182;-60
2023/03/21 01:23:39;;;;;;;20.27;8.37;;;;;;;9.53;100.00;-8515.03;5156399;27;20524;-59
2023/03/21 01:26:07;;;;;;;22.53;8.60;;;;;;;9.57;100.00;-8197.19;5156077;27;20361;-60
2023/03/21 01:28:36;;;;;;;16.77;8.87;;;;;;;9.63;100.00;-8197.69;5156091;27;20265;-60
2023/03/21 01:31:04;;;;;;;26.13;8.70;;;;;;;9.64;100.00;-7561.22;5155669;27;20186;-59
2023/03/21 01:33:33;;;;;;;30.73;9.07;;;;;;;9.68;100.00;-7561.44;5155873;27;20186;-59
2023/03/21 01:36:00;;;;;;;13.83;7.70;;;;;;;9.70;100.00;-7561.63;5155930;27;20555;-59
2023/03/21 01:38:27;;;;;;;17.07;8.63;;;;;;;9.68;100.00;-7879.78;5154427;27;20186;-59
2023/03/21 01:40:54;;;;;;;10.80;8.17;;;;;;;9.65;100.00;-7879.56;5155463;27;20182;-59
2023/03/21 01:43:25;;;;;;;16.80;7.80;;;;;;;9.56;100.00;-7242.38;5155058;27;20580;-59
2023/03/21 01:46:25;;;;;;;20.43;8.63;;;;;;;9.50;100.00;-7878.41;5155222;27;20202;-59
2023/03/21 01:48:56;;;;;;;14.93;7.97;;;;;;;9.48;100.00;-8514.59;5155938;27;20244;-59
2023/03/21 01:51:24;;;;;;;17.07;8.17;;;;;;;9.45;100.00;-8832.41;5154977;27;20188;-59
2023/03/21 01:53:51;;;;;;;20.80;8.27;;;;;;;9.34;100.00;-9149.44;5155313;27;20190;-60
2023/03/21 01:56:25;;;;;;;14.07;8.23;;;;;;;9.05;100.00;-9782.25;5154735;27;20177;-59
2023/03/21 01:58:55;;;;;;;16.70;8.13;;;;;;;9.32;100.00;-10420.94;5154857;27;20225;-60
2023/03/21 02:01:23;;;;;;;16.17;9.27;;;;;;;9.38;100.00;-10421.66;5155182;27;20186;-60
2023/03/21 02:03:51;;;;;;;18.13;9.07;;;;;;;9.42;100.00;-10104.19;5155423;27;20197;-59
2023/03/21 02:06:30;;;;;;;15.43;9.00;;;;;;;9.20;100.00;-9783.81;5155038;27;20212;-59
2023/03/21 02:09:03;;;;;;;14.87;8.37;;;;;;;9.24;100.00;-11055.59;5154951;27;20190;-58
2023/03/21 02:11:32;;;;;;;19.03;9.23;;;;;;;9.02;100.00;-11370.47;5154936;27;20193;-60
2023/03/21 02:13:59;;;;;;;15.10;8.93;;;;;;;9.33;100.00;-11692.22;5154919;27;20235;-59
2023/03/21 02:16:36;;;;;;;23.00;9.60;;;;;;;9.32;100.00;-11692.16;5154094;27;20351;-59
2023/03/21 02:19:27;;;;;;;17.77;9.83;;;;;;;9.21;100.00;-11372.88;5155182;27;20662;-59
2023/03/21 02:22:20;;;;;;;21.47;9.27;;;;;;;9.34;100.00;-11056.81;5152308;27;20662;-59
2023/03/21 02:25:17;;;;;;;16.07;9.10;;;;;;;9.43;100.00;-10740.09;5151167;27;20221;-61
2023/03/21 02:27:51;;;;;;;25.03;9.90;;;;;;;9.43;100.00;-10740.16;5153969;27;20217;-59
2023/03/21 02:30:48;;;;;;;13.23;8.40;;;;;;;9.38;100.00;-10739.47;5154805;27;20628;-60
2023/03/21 02:33:47;;;;;;;24.67;9.67;;;;;;;9.41;100.00;-11375.59;5154224;27;20612;-59
2023/03/21 02:36:25;;;;;;;16.97;9.70;;;;;;;9.34;100.00;-11374.66;5154480;27;20174;-60
2023/03/21 02:38:59;;;;;;;11.93;8.97;;;;;;;9.37;100.00;-12010.59;5153549;27;20238;-60
2023/03/21 02:41:34;;;;;;;17.37;9.63;;;;;;;9.35;100.00;-12010.31;5154664;27;20255;-61
2023/03/21 02:44:09;;;;;;;16.23;9.53;;;;;;;9.46;100.00;-12011.91;5154620;27;20609;-60
2023/03/21 02:46:42;;;;;;;19.33;9.77;;;;;;;9.37;100.00;-11692.84;5154432;27;20233;-59
2023/03/21 02:49:16;;;;;;;20.90;8.40;;;;;;;9.39;100.00;-12010.81;5153760;27;20193;-59
2023/03/21 02:51:47;;;;;;;16.77;8.90;;;;;;;9.39;100.00;-12328.63;5153981;27;20181;-59
2023/03/21 02:54:18;;;;;;;23.33;9.73;;;;;;;9.37;100.00;-12328.31;5154204;27;20181;-60
2023/03/21 02:56:49;;;;;;;25.47;10.00;;;;;;;9.25;100.00;-12644.16;5154195;27;20178;-60
2023/03/21 02:59:17;;;;;;;18.70;9.20;;;;;;;9.27;100.00;-13597.19;5154303;27;20186;-60
2023/03/21 03:01:44;;;;;;;13.80;9.37;;;;;;;9.07;100.00;-13911.19;5154288;27;20621;-59
2023/03/21 03:04:20;;;;;;;15.77;9.87;;;;;;;9.12;100.00;-14229.47;5154491;27;20198;-60
2023/03/21 03:07:08;;;;;;;16.30;9.27;;;;;;;9.07;100.00;-15497.78;5153790;27;20197;-59
2023/03/21 03:09:44;;;;;;;12.67;9.30;;;;;;;8.99;100.00;-17398.78;5153741;27;20183;-59
2023/03/21 03:12:22;;;;;;;17.67;8.90;;;;;;;8.97;100.00;-17715.31;5153826;27;20186;-60
2023/03/21 03:14:56;;;;;;;15.97;9.13;;;;;;;9.00;100.00;-17716.16;5153723;27;20192;-60
2023/03/21 03:17:36;;;;;;;15.00;9.13;;;;;;;9.06;100.00;-17717.56;5153018;27;20214;-59
2023/03/21 03:20:20;;;;;;;13.87;8.57;;;;;;;9.07;100.00;-17400.75;5153572;27;20181;-60
2023/03/21 03:22:55;;;;;;;10.30;8.97;;;;;;;9.22;100.00;-16769.69;5153562;27;20632;-59
2023/03/21 03:25:29;;;;;;;10.47;9.40;;;;;;;9.24;100.00;-16770.25;5153350;27;20254;-59
2023/03/21 03:27:58;;;;;;;14.67;9.53;;;;;;;9.00;100.00;-16764.94;5153644;27;20556;-59
2023/03/21 03:30:27;;;;;;;18.77;9.20;;;;;;;9.20;100.00;-17086.41;5153428;27;20174;-60
2023/03/21 03:33:00;;;;;;;24.70;9.80;;;;;;;9.17;100.00;-17085.84;5153263;27;20194;-60
2023/03/21 03:35:27;;;;;;;16.33;9.80;;;;;;;9.27;100.00;-17088.09;5153726;27;20185;-59
2023/03/21 03:37:57;;;;;;;20.50;9.57;;;;;;;9.18;100.00;-17403.19;5153338;27;20178;-60
2023/03/21 03:40:28;;;;;;;22.50;10.20;;;;;;;9.07;100.00;-17400.75;5153764;27;20213;-59
2023/03/21 03:43:01;;;;;;;10.73;8.87;;;;;;;9.11;100.00;-17401.69;5153379;27;20174;-59
2023/03/21 03:45:33;;;;;;;14.90;8.57;;;;;;;9.26;100.00;-17087.88;5153258;27;20206;-60
2023/03/21 03:48:06;;;;;;;15.10;9.90;;;;;;;9.19;100.00;-17403.44;5153875;27;20231;-60
2023/03/21 03:50:39;;;;;;;27.40;9.53;;;;;;;9.24;100.00;-17404.47;5153338;27;20197;-59
2023/03/21 03:53:17;;;;;;;15.10;9.17;;;;;;;9.09;100.00;-17401.09;5153444;27;20182;-60
2023/03/21 03:55:46;;;;;;;16.53;9.50;;;;;;;9.08;100.00;-17718.03;5153509;27;20189;-59
2023/03/21 03:58:13;;;;;;;16.50;9.37;;;;;;;9.14;100.00;-17402.38;5153380;27;20612;-60
2023/03/21 04:00:40;;;;;;;21.87;9.47;;;;;;;9.22;100.00;-17404.00;5153442;27;20221;-59
2023/03/21 04:03:08;;;;;;;17.50;9.87;;;;;;;9.22;100.00;-17404.13;5156595;27;20242;-59
2023/03/21 04:05:35;;;;;;;10.70;8.80;;;;;;;9.12;100.00;-17084.72;5157249;27;20233;-58
2023/03/21 04:08:02;;;;;;;13.70;9.43;;;;;;;9.15;100.00;-17085.41;5157408;27;20192;-60
2023/03/21 04:10:29;;;;;;;14.37;10.07;;;;;;;8.88;100.00;-17079.28;5157517;27;20272;-59
2023/03/21 04:12:57;;;;;;;16.53;10.00;;;;;;;9.08;100.00;-16766.69;5157257;27;20178;-60
2023/03/21 04:15:24;;;;;;;17.77;10.17;;;;;;;9.12;100.00;-16767.69;5157082;27;20197;-59
2023/03/21 04:17:51;;;;;;;21.17;10.03;;;;;;;8.95;100.00;-16763.81;5157062;27;20186;-60
2023/03/21 04:20:18;;;;;;;17.73;9.83;;;;;;;8.98;100.00;-16447.50;5157417;27;20182;-61
2023/03/21 04:22:45;;;;;;;15.10;10.67;;;;;;;8.98;100.00;-16447.41;5157237;27;20193;-59
2023/03/21 04:25:13;;;;;;;20.43;9.73;;;;;;;9.04;100.00;-16131.56;5156711;27;20273;-59
2023/03/21 04:27:39;;;;;;;15.10;9.73;;;;;;;8.89;100.00;-16128.38;5156522;27;20223;-59
2023/03/21 04:30:11;;;;;;;21.37;10.27;;;;;;;9.07;100.00;-15815.00;5156954;27;20189;-59
2023/03/21 04:32:39;;;;;;;12.27;9.37;;;;;;;9.10;100.00;-16132.81;5156482;27;20197;-59
2023/03/21 04:35:07;;;;;;;17.97;9.90;;;;;;;9.08;100.00;-16132.41;5157042;27;20182;-60
2023/03/21 04:37:34;;;;;;;13.17;9.53;;;;;;;9.10;100.00;-16132.94;5157150;27;20547;-60
2023/03/21 04:40:05;;;;;;;19.20;9.83;;;;;;;9.20;100.00;-16134.94;5156345;27;20190;-59
2023/03/21 04:42:33;;;;;;;16.10;10.93;;;;;;;9.17;100.00;-16451.50;5156919;27;20520;-59
2023/03/21 04:45:01;;;;;;;20.37;10.97;;;;;;;9.26;100.00;-16770.69;5156796;27;20181;-59
2023/03/21 04:47:29;;;;;;;20.83;10.60;;;;;;;9.35;100.00;-16772.56;5156712;27;20711;-59
2023/03/21 04:49:58;;;;;;;11.67;10.20;;;;;;;9.36;100.00;-16772.91;5156218;27;20217;-61
2023/03/21 04:52:25;;;;;;;19.63;9.57;;;;;;;9.27;100.00;-17088.09;5156775;27;20586;-60
2023/03/21 04:54:52;;;;;;;27.40;10.97;;;;;;;9.30;100.00;-17405.97;5156666;27;20211;-59
2023/03/21 04:57:19;;;;;;;24.47;11.23;;;;;;;9.32;100.00;-17723.59;5156113;27;20277;-59
2023/03/21 04:59:46;;;;;;;35.50;10.80;;;;;;;9.34;100.00;-17724.06;5156439;27;20222;-60
2023/03/21 05:02:14;;;;;;;18.47;11.57;;;;;;;9.42;100.00;-17725.97;5156113;27;20644;-60
2023/03/21 05:04:42;;;;;;;30.43;11.97;;;;;;;9.29;100.00;-17405.63;5155987;27;20288;-58
2023/03/21 05:07:09;;;;;;;14.77;10.33;;;;;;;8.94;100.00;-17080.63;5138288;27;20213;-61
2023/03/21 05:09:36;;;;;;;20.50;11.30;;;;;;;9.21;100.00;-17721.00;5156315;27;20193;-59
2023/03/21 05:12:03;;;;;;;19.57;13.20;;;;;;;9.03;100.00;-18033.84;5156231;27;20545;-59
2023/03/21 05:14:30;;;;;;;23.77;12.93;;;;;;;9.08;100.00;-18034.94;5156237;27;20655;-59
2023/03/21 05:16:57;;;;;;;27.43;13.83;;;;;;;9.03;100.00;-17716.75;5156072;27;20186;-60
2023/03/21 05:19:33;;;;;;;26.80;14.03;;;;;;;9.08;100.00;-17400.88;5155750;27;20580;-59
2023/03/21 05:22:04;;;;;;;21.77;13.13;;;;;;;9.16;100.00;-17085.63;5156258;27;20572;-59
2023/03/21 05:24:32;;;;;;;30.90;13.87;;;;;;;9.03;100.00;-17082.78;5156191;27;20667;-59
2023/03/21 05:27:01;;;;;;;34.83;14.43;;;;;;;9.23;100.00;-16770.03;5155816;27;20723;-60
2023/03/21 05:29:29;;;;;;;28.37;12.33;;;;;;;9.25;100.00;-16770.34;5155523;27;20277;-60
2023/03/21 05:31:56;;;;;;;26.97;13.20;;;;;;;8.94;100.00;-16763.72;5155680;27;20182;-60
2023/03/21 05:34:24;;;;;;;34.20;14.10;;;;;;;8.93;100.00;-16763.38;5155876;27;20182;-61
2023/03/21 05:36:51;;;;;;;25.23;14.43;;;;;;;9.11;100.00;-16767.47;5156166;27;20182;-60
2023/03/21 05:39:20;;;;;;;25.10;13.60;;;;;;;9.10;100.00;-16767.25;5155473;27;20624;-58
2023/03/21 05:41:47;;;;;;;19.00;14.03;;;;;;;9.05;100.00;-16448.91;5155620;27;20552;-60
2023/03/21 05:44:14;;;;;;;24.27;14.03;;;;;;;9.09;100.00;-16132.59;5155865;27;20254;-59
2023/03/21 05:46:42;;;;;;;21.37;13.80;;;;;;;8.96;100.00;-15812.72;5155439;27;20221;-60
2023/03/21 05:49:10;;;;;;;26.57;14.23;;;;;;;8.89;100.00;-15811.41;5155306;27;20182;-59
2023/03/21 05:51:37;;;;;;;31.13;14.47;;;;;;;9.13;100.00;-15816.22;5155504;27;20626;-59
2023/03/21 05:54:05;;;;;;;21.87;14.63;;;;;;;9.19;100.00;-15500.19;5154962;27;20189;-59
2023/03/21 05:56:33;;;;;;;26.43;14.70;;;;;;;9.18;100.00;-15499.97;5155468;27;20624;-60
2023/03/21 05:59:00;;;;;;;38.83;16.63;;;;;;;9.22;100.00;-15500.78;5155375;27;20564;-59
2023/03/21 06:01:27;;;;;;;31.63;15.60;;;;;;;9.31;100.00;-15502.59;5155301;27;20204;-60
2023/03/21 06:03:54;;;;;;;34.53;15.20;;;;;;;9.34;100.00;-15185.72;5155428;27;20220;-61
2023/03/21 06:06:21;;;;;;;31.33;17.40;;;;;;;9.29;100.00;-15502.09;5154730;27;20224;-60
2023/03/21 06:08:48;;;;;;;38.17;16.50;;;;;;;9.09;100.00;-15498.19;5154666;27;20640;-60
2023/03/21 06:11:23;;;;;;;45.13;19.13;;;;;;;9.41;100.00;-15822.00;5155084;27;20186;-60
2023/03/21 06:13:51;;;;;;;33.57;16.93;;;;;;;9.51;100.00;-15824.06;5154594;27;20196;-60
2023/03/21 06:16:18;;;;;;;28.13;17.40;;;;;;;9.52;100.00;-16141.69;5154456;27;20190;-59
2023/03/21 06:18:45;;;;;;;33.67;18.53;;;;;;;9.42;100.00;-16139.56;5154282;27;20186;-61
2023/03/21 06:21:12;;;;;;;34.43;18.77;;;;;;;9.38;100.00;-16456.06;5154458;27;20193;-60
2023/03/21 06:23:39;;;;;;;43.97;19.33;;;;;;;9.31;100.00;-16454.53;5154347;27;20195;-59
2023/03/21 06:26:07;;;;;;;56.10;27.00;;;;;;;9.68;100.00;-16779.88;5154125;27;20596;-59
2023/03/21 06:28:34;;;;;;;34.40;16.13;;;;;;;9.77;100.00;-16781.75;5154549;27;20269;-61
2023/03/21 06:31:02;;;;;;;34.97;19.40;;;;;;;9.81;100.00;-17100.13;5154259;27;20182;-60
2023/03/21 06:33:29;;;;;;;52.37;25.03;;;;;;;9.90;100.00;-17737.09;5154249;27;20288;-59
2023/03/21 06:35:58;;;;;;;37.33;17.87;;;;;;;9.72;100.00;-17732.97;5154436;27;20552;-59
2023/03/21 06:38:26;;;;;;;34.47;18.43;;;;;;;9.53;100.00;-18045.81;5153726;27;20652;-60
2023/03/21 06:40:52;;;;;;;30.13;17.57;;;;;;;9.60;100.00;-18049.38;5153304;27;20186;-59
2023/03/21 06:43:19;;;;;;;40.13;19.60;;;;;;;9.69;100.00;-18049.44;5154270;27;20182;-60
2023/03/21 06:45:46;;;;;;;31.17;16.87;;;;;;;9.62;100.00;-18048.00;5153744;27;20273;-61
2023/03/21 06:48:15;;;;;;;35.73;16.90;;;;;;;9.51;100.00;-18045.34;5153519;27;20213;-60
2023/03/21 06:50:41;;;;;;;22.67;14.43;;;;;;;9.86;100.00;-18053.56;5153307;27;20186;-60
2023/03/21 06:53:09;;;;;;;41.10;17.23;;;;;;;9.92;100.00;-18056.88;5153168;27;20672;-60
2023/03/21 06:55:35;;;;;;;26.47;17.43;;;;;;;9.90;100.00;-18056.38;5154131;27;20206;-60
2023/03/21 06:58:02;;;;;;;31.50;19.27;;;;;;;9.84;100.00;-18053.19;5153425;27;20185;-60
2023/03/21 07:00:29;;;;;;;48.87;20.17;;;;;;;9.91;100.00;-18056.63;5153017;27;20272;-60
2023/03/21 07:02:56;;;;;;;40.70;19.20;;;;;;;9.83;100.00;-18052.97;5153424;27;20205;-60
2023/03/21 07:05:24;;;;;;;35.27;18.67;;;;;;;9.83;100.00;-18052.84;5153428;27;20537;-61
2023/03/21 07:07:53;;;;;;;43.60;20.33;;;;;;;9.56;100.00;-18048.28;5153348;27;20206;-60
2023/03/21 07:10:20;;;;;;;39.93;18.73;;;;;;;9.63;100.00;-18049.97;5152484;27;20196;-60
2023/03/21 07:12:46;;;;;;;32.67;19.70;;;;;;;9.43;100.00;-18043.41;5153316;27;20277;-60
2023/03/21 07:15:13;;;;;;;36.70;19.77;;;;;;;9.50;100.00;-17410.63;5153113;27;20186;-59
2023/03/21 07:17:40;;;;;;;37.60;19.63;;;;;;;9.55;100.00;-16777.09;5153101;27;20292;-60
2023/03/21 07:20:08;;;;;;;33.73;18.13;;;;;;;9.57;100.00;-16460.06;5153627;27;20700;-60
2023/03/21 07:22:36;;;;;;;36.13;18.07;;;;;;;9.28;100.00;-16453.78;5153029;27;20687;-60
2023/03/21 07:25:03;;;;;;;39.20;18.30;;;;;;;9.30;100.00;-16136.94;5153082;27;20292;-60
2023/03/21 07:27:33;;;;;;;35.67;16.70;;;;;;;9.38;100.00;-15821.28;5152334;27;20668;-60
2023/03/21 07:30:00;;;;;;;28.17;15.00;;;;;;;9.18;100.00;-15499.97;5132479;27;20185;-60
2023/03/21 07:32:28;;;;;;;31.40;15.53;;;;;;;9.25;100.00;-15501.38;5152732;27;20478;-60
2023/03/21 07:34:55;;;;;;;44.50;19.30;;;;;;;9.30;100.00;-15502.28;5152966;27;20681;-60
2023/03/21 07:37:22;;;;;;;39.37;16.57;;;;;;;9.29;100.00;-15502.19;5151718;27;20178;-60
2023/03/21 07:39:51;;;;;;;35.43;17.30;;;;;;;9.11;100.00;-15181.31;5152557;27;20260;-60
2023/03/21 07:42:18;;;;;;;48.93;19.50;;;;;;;9.17;100.00;-15182.47;5153016;27;20529;-59
2023/03/21 07:44:45;;;;;;;45.10;21.17;;;;;;;9.13;100.00;-15181.69;5152143;27;20574;-60
2023/03/21 07:47:11;;;;;;;37.07;21.40;;;;;;;8.87;100.00;-14859.53;5121711;27;20260;-60
2023/03/21 07:49:38;;;;;;;31.50;20.33;;;;;;;9.02;100.00;-14545.00;5131854;27;20186;-59
2023/03/21 07:52:06;;;;;;;39.13;22.23;;;;;;;9.18;100.00;-14865.44;5131961;27;20195;-61
2023/03/21 07:54:33;;;;;;;44.10;20.60;;;;;;;9.19;100.00;-14548.16;5132344;28;20189;-62
2023/03/21 07:57:03;;;;;;;41.27;19.60;;;;;;;9.09;100.00;-14228.94;5128184;27;20191;-61
2023/03/21 07:59:29;;;;;;;28.07;17.83;;;;;;;8.98;100.00;-14227.03;5132132;28;20698;-60
2023/03/21 08:01:56;;;;;;;36.43;20.13;;;;;;;9.02;100.00;-14545.09;5132026;28;20186;-59
2023/03/21 08:04:23;;;;;;;39.77;20.83;;;;;;;9.07;100.00;-14545.91;5132478;28;20724;-60
2023/03/21 08:06:56;;;;;;;39.07;20.20;;;;;;;9.10;100.00;-14546.47;5132125;28;20213;-61
2023/03/21 08:09:23;;;;;;;46.57;20.20;;;;;;;9.01;100.00;-14227.59;5132232;28;20178;-60
2023/03/21 08:11:50;;;;;;;38.13;20.50;;;;;;;8.98;100.00;-14227.03;5132106;28;20231;-61
2023/03/21 08:14:32;;;;;;;35.07;20.17;;;;;;;8.91;100.00;-14225.69;5131937;28;20187;-60
2023/03/21 08:16:58;;;;;;;37.93;20.97;;;;;;;8.95;100.00;-14226.50;5132078;28;20562;-59
2023/03/21 08:19:25;;;;;;;35.73;19.07;;;;;;;8.98;100.00;-14226.94;5131735;28;20179;-59
2023/03/21 08:21:53;;;;;;;34.67;20.90;;;;;;;8.88;100.00;-14225.25;5131982;28;20698;-59
2023/03/21 08:24:19;;;;;;;38.57;19.30;;;;;;;9.04;100.00;-14228.13;5131943;28;20274;-60
2023/03/21 08:26:46;;;;;;;37.27;21.07;;;;;;;9.09;100.00;-14228.94;5131782;28;20210;-61
2023/03/21 08:29:13;;;;;;;31.83;18.17;;;;;;;9.11;100.00;-13911.91;5131876;28;20244;-60
2023/03/21 08:31:43;;;;;;;30.17;19.30;;;;;;;9.05;100.00;-13593.44;5132224;28;20637;-59
2023/03/21 08:34:12;;;;;;;35.47;19.63;;;;;;;9.08;100.00;-13911.38;5131878;28;20201;-60
2023/03/21 08:36:39;;;;;;;40.37;19.83;;;;;;;9.09;100.00;-13594.13;5131848;28;20187;-61
2023/03/21 08:39:06;;;;;;;42.67;23.07;;;;;;;9.12;100.00;-13594.72;5132096;28;20217;-62
2023/03/21 08:41:34;;;;;;;51.00;24.67;;;;;;;9.11;100.00;-13594.56;5131733;28;20191;-61
2023/03/21 08:44:01;;;;;;;45.50;25.20;;;;;;;9.38;100.00;-13916.63;5131960;28;20606;-60
2023/03/21 08:46:32;;;;;;;41.73;23.70;;;;;;;9.34;100.00;-13598.28;5131823;28;20239;-60
2023/03/21 08:49:00;;;;;;;51.77;22.10;;;;;;;9.37;100.00;-13281.22;5134492;27;20179;-60
2023/03/21 08:51:27;;;;;;;37.77;20.30;;;;;;;9.27;100.00;-13279.56;5135687;27;20248;-61
2023/03/21 08:53:54;;;;;;;41.67;22.80;;;;;;;9.51;100.00;-13283.50;5135691;27;20590;-61
2023/03/21 08:56:21;;;;;;;39.83;22.40;;;;;;;9.51;100.00;-13283.59;5135559;27;20644;-60
2023/03/21 08:58:48;;;;;;;29.47;17.90;;;;;;;9.32;100.00;-12645.25;5135257;27;20179;-60
2023/03/21 09:01:15;;;;;;;31.90;21.00;;;;;;;9.28;100.00;-12962.22;5135762;27;20193;-60
2023/03/21 09:03:42;;;;;;;31.93;18.90;;;;;;;9.37;100.00;-13281.28;5135460;27;20199;-61
2023/03/21 09:06:13;;;;;;;29.80;18.30;;;;;;;9.32;100.00;-12645.16;5135717;27;20549;-60
2023/03/21 09:08:40;;;;;;;35.20;22.03;;;;;;;9.44;100.00;-13282.44;5134806;27;20198;-61
2023/03/21 09:11:08;;;;;;;33.63;20.37;;;;;;;9.34;100.00;-13280.78;5135752;27;20617;-61
2023/03/21 09:13:36;;;;;;;30.33;17.00;;;;;;;9.33;100.00;-12963.03;5135584;27;20179;-60
2023/03/21 09:16:03;;;;;;;31.97;20.20;;;;;;;9.30;100.00;-13280.06;5135120;27;20636;-61
2023/03/21 09:18:45;;;;;;;43.77;21.90;;;;;;;9.33;100.00;-13280.63;5135671;27;20643;-60
2023/03/21 09:21:17;;;;;;;38.10;21.07;;;;;;;9.25;100.00;-13279.31;5135347;27;20256;-60
2023/03/21 09:23:45;;;;;;;55.80;21.60;;;;;;;9.39;100.00;-13599.13;5135338;27;20179;-62
2023/03/21 09:26:12;;;;;;;45.80;22.40;;;;;;;9.47;100.00;-13282.84;5134979;27;20191;-60
2023/03/21 09:28:39;;;;;;;48.23;21.83;;;;;;;9.31;100.00;-12962.72;5135158;27;20203;-61
2023/03/21 09:31:11;;;;;;;59.10;23.23;;;;;;;9.40;100.00;-12964.06;5135494;27;20455;-61
2023/03/21 09:33:39;;;;;;;47.43;22.57;;;;;;;9.45;100.00;-12964.88;5134774;27;20190;-60
2023/03/21 09:36:10;;;;;;;41.00;21.17;;;;;;;9.47;100.00;-12965.25;5134268;27;20182;-60
2023/03/21 09:38:39;;;;;;;35.97;19.57;;;;;;;9.25;100.00;-12961.66;5134370;27;20226;-60
2023/03/21 09:41:17;;;;;;;42.10;20.53;;;;;;;9.38;100.00;-12963.75;5134429;27;20213;-60
2023/03/21 09:43:56;;;;;;;47.20;21.00;;;;;;;9.34;100.00;-13280.78;5134398;27;20186;-60
2023/03/21 09:46:36;;;;;;;45.00;21.17;;;;;;;9.43;100.00;-12964.53;5134087;27;20230;-60
2023/03/21 09:49:08;;;;;;;46.57;20.67;;;;;;;9.14;100.00;-13277.59;5134278;27;20274;-60
2023/03/21 09:51:40;;;;;;;39.00;20.00;;;;;;;9.39;100.00;-13916.78;5134469;27;20655;-60
2023/03/21 09:54:17;;;;;;;43.93;20.30;;;;;;;9.16;100.00;-13595.31;5134299;27;20229;-60
2023/03/21 09:56:46;;;;;;;45.93;20.47;;;;;;;9.29;100.00;-13597.44;5134323;27;20193;-60
2023/03/21 09:59:22;;;;;;;51.40;20.33;;;;;;;9.28;100.00;-13279.81;5114678;28;20294;-61
2023/03/21 10:01:49;;;;;;;39.63;19.30;;;;;;;9.39;100.00;-13281.63;5133944;27;20182;-61
2023/03/21 10:04:19;;;;;;;37.80;19.93;;;;;;;9.45;100.00;-13282.59;5134361;27;20289;-59
2023/03/21 10:06:53;;;;;;;50.47;22.63;;;;;;;9.62;100.00;-13603.13;5134162;27;20235;-60
2023/03/21 10:09:23;;;;;;;37.33;17.67;;;;;;;9.78;100.00;-12970.03;5134346;27;20183;-61
2023/03/21 10:11:55;;;;;;;38.83;17.77;;;;;;;9.62;100.00;-12332.06;5134162;27;20602;-61
2023/03/21 10:14:28;;;;;;;41.90;18.93;;;;;;;9.52;100.00;-12965.97;5134042;27;20602;-60
2023/03/21 10:16:59;;;;;;;43.93;18.27;;;;;;;9.48;100.00;-13283.09;5134109;27;20187;-60
2023/03/21 10:19:28;;;;;;;42.70;20.97;;;;;;;9.44;100.00;-13600.06;5134283;27;20552;-60
2023/03/21 10:21:55;;;;;;;43.07;21.77;;;;;;;9.31;100.00;-13597.88;5134335;27;20187;-60
2023/03/21 10:24:26;;;;;;;46.10;21.17;;;;;;;9.80;100.00;-13288.28;5134174;27;20182;-60
2023/03/21 10:26:54;;;;;;;44.03;19.87;;;;;;;9.75;100.00;-12969.56;5133686;27;20197;-59
2023/03/21 10:29:25;;;;;;;34.83;18.57;;;;;;;9.87;100.00;-13607.19;5133824;27;20207;-61
2023/03/21 10:31:54;;;;;;;36.87;21.43;;;;;;;9.88;100.00;-13925.28;5133634;27;20205;-60
2023/03/21 10:34:28;;;;;;;31.50;17.70;;;;;;;9.78;100.00;-14241.19;5133995;27;20530;-60
2023/03/21 10:36:55;;;;;;;39.63;20.77;;;;;;;9.78;100.00;-14876.56;5133339;27;20192;-60
2023/03/21 10:39:28;;;;;;;40.57;19.83;;;;;;;9.74;100.00;-15193.53;5133411;27;20613;-61
2023/03/21 10:41:55;;;;;;;51.23;19.47;;;;;;;9.97;100.00;-15198.03;5133837;27;20629;-60
2023/03/21 10:44:29;;;;;;;35.77;17.00;;;;;;;10.00;100.00;-15834.03;5133776;27;20182;-60
2023/03/21 10:46:58;;;;;;;33.30;18.47;;;;;;;10.12;100.00;-17107.00;5132885;27;20230;-60
2023/03/21 10:49:26;;;;;;;60.50;24.13;;;;;;;10.27;100.00;-18063.47;5133657;27;20656;-61
2023/03/21 10:51:56;;;;;;;29.30;18.77;;;;;;;10.44;100.00;-18069.44;5133381;27;20247;-60
2023/03/21 10:54:29;;;;;;;29.43;19.40;;;;;;;10.31;100.00;-18066.31;5133123;27;20190;-62
2023/03/21 10:57:11;;;;;;;33.33;19.40;;;;;;;10.25;100.00;-18063.00;5132843;27;20190;-62
2023/03/21 10:59:47;;;;;;;37.13;18.80;;;;;;;10.31;100.00;-17746.69;5133452;27;20219;-60
2023/03/21 11:02:19;;;;;;;38.10;21.40;;;;;;;10.28;100.00;-17428.44;5132726;27;20286;-61
2023/03/21 11:04:47;;;;;;;45.87;19.23;;;;;;;10.39;100.00;-17431.00;5133164;27;20617;-61
2023/03/21 11:07:18;;;;;;;38.07;21.03;;;;;;;10.49;100.00;-16161.81;5132948;27;20190;-62
2023/03/21 11:09:49;;;;;;;65.97;24.30;;;;;;;10.53;100.00;-17116.28;5132777;27;20212;-60
2023/03/21 11:12:18;;;;;;;49.90;22.83;;;;;;;10.46;100.00;-16479.06;5132313;27;20240;-60
2023/03/21 11:14:46;;;;;;;42.07;18.97;;;;;;;10.57;100.00;-16163.50;5132337;27;20663;-61
2023/03/21 11:17:25;;;;;;;40.03;20.23;;;;;;;10.45;100.00;-14253.16;5132672;27;20178;-61
2023/03/21 11:19:59;;;;;;;39.63;20.43;;;;;;;10.18;100.00;-17108.38;5132662;27;20269;-64
2023/03/21 11:22:30;;;;;;;48.37;20.70;;;;;;;10.36;100.00;-17430.28;5132441;27;20177;-59
2023/03/21 11:25:00;;;;;;;34.70;20.03;;;;;;;10.33;100.00;-18064.94;5132266;27;20182;-60